sensor_id;sensor_type;location;lat;lon;timestamp;P1;durP1;ratioP1;P2;durP2;ratioP2
75073;SDS011;63652;51.526;5.080;2023-05-07T00:01:48;6.95;;;3.83;;
75073;SDS011;63652;51.526;5.080;2023-05-07T00:04:14;8.77;;;4.55;;
75073;SDS011;63652;51.526;5.080;2023-05-07T00:06:39;5.85;;;4.18;;
75073;SDS011;63652;51.526;5.080;2023-05-07T00:09:05;6.60;;;3.88;;
75073;SDS011;63652;51.526;5.080;2023-05-07T00:11:31;6.93;;;4.07;;
75073;SDS011;63652;51.526;5.080;2023-05-07T00:13:57;4.95;;;3.63;;
75073;SDS011;63652;51.526;5.080;2023-05-07T00:16:23;6.22;;;4.25;;
75073;SDS011;63652;51.526;5.080;2023-05-07T00:18:48;5.85;;;3.90;;
75073;SDS011;63652;51.526;5.080;2023-05-07T00:21:13;7.53;;;4.28;;
75073;SDS011;63652;51.526;5.080;2023-05-07T00:23:39;5.93;;;4.18;;
75073;SDS011;63652;51.526;5.080;2023-05-07T00:26:04;7.60;;;4.07;;
75073;SDS011;63652;51.526;5.080;2023-05-07T00:28:29;7.47;;;4.25;;
75073;SDS011;63652;51.526;5.080;2023-05-07T00:30:55;7.22;;;4.97;;
75073;SDS011;63652;51.526;5.080;2023-05-07T00:33:20;7.50;;;4.82;;
75073;SDS011;63652;51.526;5.080;2023-05-07T00:35:47;9.52;;;4.57;;
75073;SDS011;63652;51.526;5.080;2023-05-07T00:38:12;6.15;;;3.80;;
75073;SDS011;63652;51.526;5.080;2023-05-07T00:40:38;4.93;;;3.45;;
75073;SDS011;63652;51.526;5.080;2023-05-07T00:43:03;5.72;;;3.78;;
75073;SDS011;63652;51.526;5.080;2023-05-07T00:45:29;5.95;;;3.97;;
75073;SDS011;63652;51.526;5.080;2023-05-07T00:47:58;5.78;;;3.88;;
75073;SDS011;63652;51.526;5.080;2023-05-07T00:50:25;4.97;;;3.70;;
75073;SDS011;63652;51.526;5.080;2023-05-07T00:52:54;8.82;;;3.80;;
75073;SDS011;63652;51.526;5.080;2023-05-07T00:55:22;6.72;;;3.90;;
75073;SDS011;63652;51.526;5.080;2023-05-07T00:57:49;6.55;;;4.30;;
75073;SDS011;63652;51.526;5.080;2023-05-07T01:00:15;6.43;;;3.60;;
75073;SDS011;63652;51.526;5.080;2023-05-07T01:02:41;5.88;;;3.97;;
75073;SDS011;63652;51.526;5.080;2023-05-07T01:05:07;6.97;;;4.32;;
75073;SDS011;63652;51.526;5.080;2023-05-07T01:07:34;5.55;;;3.85;;
75073;SDS011;63652;51.526;5.080;2023-05-07T01:10:01;6.20;;;4.15;;
75073;SDS011;63652;51.526;5.080;2023-05-07T01:12:27;4.57;;;3.33;;
75073;SDS011;63652;51.526;5.080;2023-05-07T01:14:53;6.43;;;4.07;;
75073;SDS011;63652;51.526;5.080;2023-05-07T01:17:19;5.82;;;3.88;;
75073;SDS011;63652;51.526;5.080;2023-05-07T01:19:44;7.60;;;3.92;;
75073;SDS011;63652;51.526;5.080;2023-05-07T01:22:10;8.80;;;4.22;;
75073;SDS011;63652;51.526;5.080;2023-05-07T01:24:39;6.18;;;4.10;;
75073;SDS011;63652;51.526;5.080;2023-05-07T01:27:05;5.78;;;4.15;;
75073;SDS011;63652;51.526;5.080;2023-05-07T01:29:30;8.20;;;4.57;;
75073;SDS011;63652;51.526;5.080;2023-05-07T01:31:57;7.85;;;4.60;;
75073;SDS011;63652;51.526;5.080;2023-05-07T01:34:25;5.78;;;4.30;;
75073;SDS011;63652;51.526;5.080;2023-05-07T01:36:52;5.10;;;3.47;;
75073;SDS011;63652;51.526;5.080;2023-05-07T01:39:18;7.88;;;5.03;;
75073;SDS011;63652;51.526;5.080;2023-05-07T01:41:43;6.72;;;3.95;;
75073;SDS011;63652;51.526;5.080;2023-05-07T01:44:10;6.18;;;3.63;;
75073;SDS011;63652;51.526;5.080;2023-05-07T01:46:36;6.18;;;3.97;;
75073;SDS011;63652;51.526;5.080;2023-05-07T01:49:02;6.70;;;4.03;;
75073;SDS011;63652;51.526;5.080;2023-05-07T01:51:27;7.95;;;4.45;;
75073;SDS011;63652;51.526;5.080;2023-05-07T01:53:53;7.72;;;4.50;;
75073;SDS011;63652;51.526;5.080;2023-05-07T01:56:18;6.82;;;4.60;;
75073;SDS011;63652;51.526;5.080;2023-05-07T01:58:45;6.28;;;4.03;;
75073;SDS011;63652;51.526;5.080;2023-05-07T02:01:13;9.95;;;5.28;;
75073;SDS011;63652;51.526;5.080;2023-05-07T02:03:39;6.47;;;3.85;;
75073;SDS011;63652;51.526;5.080;2023-05-07T02:06:04;7.78;;;4.90;;
75073;SDS011;63652;51.526;5.080;2023-05-07T02:08:30;6.20;;;4.30;;
75073;SDS011;63652;51.526;5.080;2023-05-07T02:10:56;7.28;;;4.07;;
75073;SDS011;63652;51.526;5.080;2023-05-07T02:13:21;6.40;;;4.10;;
75073;SDS011;63652;51.526;5.080;2023-05-07T02:15:47;6.60;;;4.47;;
75073;SDS011;63652;51.526;5.080;2023-05-07T02:18:15;7.90;;;4.88;;
75073;SDS011;63652;51.526;5.080;2023-05-07T02:20:41;8.50;;;4.60;;
75073;SDS011;63652;51.526;5.080;2023-05-07T02:23:06;6.53;;;4.15;;
75073;SDS011;63652;51.526;5.080;2023-05-07T02:25:32;9.88;;;4.65;;
75073;SDS011;63652;51.526;5.080;2023-05-07T02:27:57;7.85;;;4.47;;
75073;SDS011;63652;51.526;5.080;2023-05-07T02:30:22;7.60;;;5.20;;
75073;SDS011;63652;51.526;5.080;2023-05-07T02:32:50;9.57;;;4.88;;
75073;SDS011;63652;51.526;5.080;2023-05-07T02:35:15;7.85;;;4.75;;
75073;SDS011;63652;51.526;5.080;2023-05-07T02:37:41;6.82;;;4.20;;
75073;SDS011;63652;51.526;5.080;2023-05-07T02:40:06;7.85;;;5.30;;
75073;SDS011;63652;51.526;5.080;2023-05-07T02:42:32;7.03;;;4.63;;
75073;SDS011;63652;51.526;5.080;2023-05-07T02:44:57;8.68;;;4.55;;
75073;SDS011;63652;51.526;5.080;2023-05-07T02:47:23;6.93;;;4.97;;
75073;SDS011;63652;51.526;5.080;2023-05-07T02:49:48;7.82;;;4.75;;
75073;SDS011;63652;51.526;5.080;2023-05-07T02:52:13;7.45;;;5.07;;
75073;SDS011;63652;51.526;5.080;2023-05-07T02:54:39;10.00;;;4.60;;
75073;SDS011;63652;51.526;5.080;2023-05-07T02:57:04;7.03;;;5.30;;
75073;SDS011;63652;51.526;5.080;2023-05-07T02:59:30;6.30;;;4.72;;
75073;SDS011;63652;51.526;5.080;2023-05-07T03:01:55;7.68;;;5.07;;
75073;SDS011;63652;51.526;5.080;2023-05-07T03:04:20;10.15;;;5.50;;
75073;SDS011;63652;51.526;5.080;2023-05-07T03:06:46;8.27;;;5.20;;
75073;SDS011;63652;51.526;5.080;2023-05-07T03:09:11;11.38;;;5.85;;
75073;SDS011;63652;51.526;5.080;2023-05-07T03:11:37;8.85;;;5.82;;
75073;SDS011;63652;51.526;5.080;2023-05-07T03:14:02;8.65;;;5.57;;
75073;SDS011;63652;51.526;5.080;2023-05-07T03:16:27;7.68;;;6.03;;
75073;SDS011;63652;51.526;5.080;2023-05-07T03:18:53;8.13;;;5.43;;
75073;SDS011;63652;51.526;5.080;2023-05-07T03:21:18;8.63;;;5.97;;
75073;SDS011;63652;51.526;5.080;2023-05-07T03:23:44;7.60;;;5.10;;
75073;SDS011;63652;51.526;5.080;2023-05-07T03:26:09;10.00;;;5.70;;
75073;SDS011;63652;51.526;5.080;2023-05-07T03:28:34;8.00;;;4.95;;
75073;SDS011;63652;51.526;5.080;2023-05-07T03:31:00;9.98;;;5.95;;
75073;SDS011;63652;51.526;5.080;2023-05-07T03:33:25;8.88;;;5.70;;
75073;SDS011;63652;51.526;5.080;2023-05-07T03:35:52;8.98;;;5.93;;
75073;SDS011;63652;51.526;5.080;2023-05-07T03:38:17;10.77;;;5.95;;
75073;SDS011;63652;51.526;5.080;2023-05-07T03:40:43;10.80;;;6.40;;
75073;SDS011;63652;51.526;5.080;2023-05-07T03:43:08;9.15;;;6.18;;
75073;SDS011;63652;51.526;5.080;2023-05-07T03:45:34;10.02;;;5.70;;
75073;SDS011;63652;51.526;5.080;2023-05-07T03:47:59;8.68;;;5.85;;
75073;SDS011;63652;51.526;5.080;2023-05-07T03:50:24;8.05;;;5.07;;
75073;SDS011;63652;51.526;5.080;2023-05-07T03:52:50;7.47;;;5.53;;
75073;SDS011;63652;51.526;5.080;2023-05-07T03:55:15;11.32;;;6.40;;
75073;SDS011;63652;51.526;5.080;2023-05-07T03:57:40;10.35;;;6.95;;
75073;SDS011;63652;51.526;5.080;2023-05-07T04:00:06;12.07;;;6.80;;
75073;SDS011;63652;51.526;5.080;2023-05-07T04:02:32;9.68;;;6.20;;
75073;SDS011;63652;51.526;5.080;2023-05-07T04:04:58;8.73;;;5.88;;
75073;SDS011;63652;51.526;5.080;2023-05-07T04:07:23;9.50;;;5.40;;
75073;SDS011;63652;51.526;5.080;2023-05-07T04:09:49;9.75;;;6.03;;
75073;SDS011;63652;51.526;5.080;2023-05-07T04:12:14;9.50;;;5.90;;
75073;SDS011;63652;51.526;5.080;2023-05-07T04:14:40;8.38;;;5.85;;
75073;SDS011;63652;51.526;5.080;2023-05-07T04:17:05;9.40;;;5.82;;
75073;SDS011;63652;51.526;5.080;2023-05-07T04:19:32;9.82;;;6.32;;
75073;SDS011;63652;51.526;5.080;2023-05-07T04:21:58;10.25;;;6.47;;
75073;SDS011;63652;51.526;5.080;2023-05-07T04:24:23;8.40;;;5.93;;
75073;SDS011;63652;51.526;5.080;2023-05-07T04:26:49;8.75;;;5.47;;
75073;SDS011;63652;51.526;5.080;2023-05-07T04:29:16;8.48;;;5.35;;
75073;SDS011;63652;51.526;5.080;2023-05-07T04:31:41;10.43;;;6.85;;
75073;SDS011;63652;51.526;5.080;2023-05-07T04:34:09;7.25;;;6.22;;
75073;SDS011;63652;51.526;5.080;2023-05-07T04:36:39;9.43;;;6.32;;
75073;SDS011;63652;51.526;5.080;2023-05-07T04:39:05;9.93;;;6.70;;
75073;SDS011;63652;51.526;5.080;2023-05-07T04:41:31;9.48;;;6.28;;
75073;SDS011;63652;51.526;5.080;2023-05-07T04:43:56;11.88;;;6.30;;
75073;SDS011;63652;51.526;5.080;2023-05-07T04:46:23;9.73;;;6.57;;
75073;SDS011;63652;51.526;5.080;2023-05-07T04:48:49;11.15;;;6.38;;
75073;SDS011;63652;51.526;5.080;2023-05-07T04:51:15;8.32;;;5.82;;
75073;SDS011;63652;51.526;5.080;2023-05-07T04:53:40;10.15;;;6.53;;
75073;SDS011;63652;51.526;5.080;2023-05-07T04:56:06;12.50;;;6.93;;
75073;SDS011;63652;51.526;5.080;2023-05-07T04:58:31;10.98;;;6.43;;
75073;SDS011;63652;51.526;5.080;2023-05-07T05:00:57;10.05;;;6.72;;
75073;SDS011;63652;51.526;5.080;2023-05-07T05:03:23;10.45;;;6.13;;
75073;SDS011;63652;51.526;5.080;2023-05-07T05:05:51;12.88;;;7.55;;
75073;SDS011;63652;51.526;5.080;2023-05-07T05:08:17;12.80;;;7.85;;
75073;SDS011;63652;51.526;5.080;2023-05-07T05:10:43;12.18;;;7.90;;
75073;SDS011;63652;51.526;5.080;2023-05-07T05:13:08;12.85;;;7.75;;
75073;SDS011;63652;51.526;5.080;2023-05-07T05:15:34;14.13;;;7.35;;
75073;SDS011;63652;51.526;5.080;2023-05-07T05:18:00;13.35;;;7.88;;
75073;SDS011;63652;51.526;5.080;2023-05-07T05:20:25;11.02;;;7.30;;
75073;SDS011;63652;51.526;5.080;2023-05-07T05:22:51;13.23;;;8.52;;
75073;SDS011;63652;51.526;5.080;2023-05-07T05:25:16;13.30;;;8.57;;
75073;SDS011;63652;51.526;5.080;2023-05-07T05:27:42;12.10;;;7.75;;
75073;SDS011;63652;51.526;5.080;2023-05-07T05:30:07;13.70;;;8.43;;
75073;SDS011;63652;51.526;5.080;2023-05-07T05:32:33;14.50;;;7.93;;
75073;SDS011;63652;51.526;5.080;2023-05-07T05:34:58;13.73;;;8.40;;
75073;SDS011;63652;51.526;5.080;2023-05-07T05:37:24;14.88;;;9.23;;
75073;SDS011;63652;51.526;5.080;2023-05-07T05:39:50;14.82;;;9.50;;
75073;SDS011;63652;51.526;5.080;2023-05-07T05:42:15;17.38;;;9.02;;
75073;SDS011;63652;51.526;5.080;2023-05-07T05:44:40;17.75;;;9.88;;
75073;SDS011;63652;51.526;5.080;2023-05-07T05:47:06;15.57;;;8.95;;
75073;SDS011;63652;51.526;5.080;2023-05-07T05:49:31;14.75;;;8.55;;
75073;SDS011;63652;51.526;5.080;2023-05-07T05:51:56;15.68;;;10.00;;
75073;SDS011;63652;51.526;5.080;2023-05-07T05:54:22;16.88;;;9.82;;
75073;SDS011;63652;51.526;5.080;2023-05-07T05:56:47;16.15;;;9.93;;
75073;SDS011;63652;51.526;5.080;2023-05-07T05:59:13;15.52;;;10.25;;
75073;SDS011;63652;51.526;5.080;2023-05-07T06:01:38;14.77;;;9.38;;
75073;SDS011;63652;51.526;5.080;2023-05-07T06:04:03;18.58;;;10.52;;
75073;SDS011;63652;51.526;5.080;2023-05-07T06:06:29;17.23;;;10.23;;
75073;SDS011;63652;51.526;5.080;2023-05-07T06:08:56;16.95;;;9.70;;
75073;SDS011;63652;51.526;5.080;2023-05-07T06:11:21;18.30;;;11.20;;
75073;SDS011;63652;51.526;5.080;2023-05-07T06:13:46;15.60;;;10.57;;
75073;SDS011;63652;51.526;5.080;2023-05-07T06:16:12;19.30;;;11.02;;
75073;SDS011;63652;51.526;5.080;2023-05-07T06:18:37;17.25;;;10.38;;
75073;SDS011;63652;51.526;5.080;2023-05-07T06:21:03;17.95;;;11.35;;
75073;SDS011;63652;51.526;5.080;2023-05-07T06:23:28;16.27;;;10.95;;
75073;SDS011;63652;51.526;5.080;2023-05-07T06:25:53;18.50;;;11.40;;
75073;SDS011;63652;51.526;5.080;2023-05-07T06:28:22;18.35;;;10.35;;
75073;SDS011;63652;51.526;5.080;2023-05-07T06:30:47;15.25;;;9.18;;
75073;SDS011;63652;51.526;5.080;2023-05-07T06:33:14;15.98;;;9.90;;
75073;SDS011;63652;51.526;5.080;2023-05-07T06:35:40;18.33;;;11.38;;
75073;SDS011;63652;51.526;5.080;2023-05-07T06:38:06;19.77;;;10.32;;
75073;SDS011;63652;51.526;5.080;2023-05-07T06:40:31;20.95;;;10.90;;
75073;SDS011;63652;51.526;5.080;2023-05-07T06:42:56;17.17;;;9.68;;
75073;SDS011;63652;51.526;5.080;2023-05-07T06:45:22;18.90;;;11.07;;
75073;SDS011;63652;51.526;5.080;2023-05-07T06:47:47;16.30;;;10.27;;
75073;SDS011;63652;51.526;5.080;2023-05-07T06:50:12;20.45;;;11.50;;
75073;SDS011;63652;51.526;5.080;2023-05-07T06:52:38;20.42;;;11.27;;
75073;SDS011;63652;51.526;5.080;2023-05-07T06:55:03;16.30;;;10.00;;
75073;SDS011;63652;51.526;5.080;2023-05-07T06:57:29;17.50;;;10.05;;
75073;SDS011;63652;51.526;5.080;2023-05-07T06:59:55;17.63;;;10.85;;
75073;SDS011;63652;51.526;5.080;2023-05-07T07:02:20;17.35;;;10.68;;
75073;SDS011;63652;51.526;5.080;2023-05-07T07:04:46;20.23;;;10.30;;
75073;SDS011;63652;51.526;5.080;2023-05-07T07:07:11;18.65;;;11.80;;
75073;SDS011;63652;51.526;5.080;2023-05-07T07:09:37;16.75;;;10.52;;
75073;SDS011;63652;51.526;5.080;2023-05-07T07:12:02;21.02;;;12.35;;
75073;SDS011;63652;51.526;5.080;2023-05-07T07:14:28;17.50;;;11.43;;
75073;SDS011;63652;51.526;5.080;2023-05-07T07:16:53;20.23;;;11.35;;
75073;SDS011;63652;51.526;5.080;2023-05-07T07:19:18;17.40;;;11.52;;
75073;SDS011;63652;51.526;5.080;2023-05-07T07:21:45;19.50;;;12.07;;
75073;SDS011;63652;51.526;5.080;2023-05-07T07:24:10;16.08;;;11.15;;
75073;SDS011;63652;51.526;5.080;2023-05-07T07:26:36;17.27;;;11.65;;
75073;SDS011;63652;51.526;5.080;2023-05-07T07:29:01;18.77;;;11.73;;
75073;SDS011;63652;51.526;5.080;2023-05-07T07:31:26;18.52;;;11.40;;
75073;SDS011;63652;51.526;5.080;2023-05-07T07:33:52;20.27;;;11.60;;
75073;SDS011;63652;51.526;5.080;2023-05-07T07:36:17;17.90;;;11.20;;
75073;SDS011;63652;51.526;5.080;2023-05-07T07:38:42;17.67;;;10.07;;
75073;SDS011;63652;51.526;5.080;2023-05-07T07:41:08;19.13;;;11.98;;
75073;SDS011;63652;51.526;5.080;2023-05-07T07:43:34;19.02;;;11.25;;
75073;SDS011;63652;51.526;5.080;2023-05-07T07:46:00;17.90;;;10.82;;
75073;SDS011;63652;51.526;5.080;2023-05-07T07:48:26;18.17;;;11.20;;
75073;SDS011;63652;51.526;5.080;2023-05-07T07:50:51;18.63;;;11.10;;
75073;SDS011;63652;51.526;5.080;2023-05-07T07:53:16;19.48;;;11.57;;
75073;SDS011;63652;51.526;5.080;2023-05-07T07:55:42;22.65;;;12.68;;
75073;SDS011;63652;51.526;5.080;2023-05-07T07:58:07;17.90;;;11.45;;
75073;SDS011;63652;51.526;5.080;2023-05-07T08:00:33;17.10;;;11.15;;
75073;SDS011;63652;51.526;5.080;2023-05-07T08:02:58;16.80;;;11.23;;
75073;SDS011;63652;51.526;5.080;2023-05-07T08:05:24;17.45;;;11.00;;
75073;SDS011;63652;51.526;5.080;2023-05-07T08:07:50;20.10;;;11.80;;
75073;SDS011;63652;51.526;5.080;2023-05-07T08:10:19;17.13;;;11.15;;
75073;SDS011;63652;51.526;5.080;2023-05-07T08:12:50;19.80;;;11.93;;
75073;SDS011;63652;51.526;5.080;2023-05-07T08:15:16;14.05;;;10.07;;
75073;SDS011;63652;51.526;5.080;2023-05-07T08:17:42;16.30;;;10.77;;
75073;SDS011;63652;51.526;5.080;2023-05-07T08:20:08;18.15;;;11.10;;
75073;SDS011;63652;51.526;5.080;2023-05-07T08:22:34;17.92;;;10.13;;
75073;SDS011;63652;51.526;5.080;2023-05-07T08:25:00;15.43;;;10.73;;
75073;SDS011;63652;51.526;5.080;2023-05-07T08:27:26;14.75;;;9.75;;
75073;SDS011;63652;51.526;5.080;2023-05-07T08:29:51;14.70;;;9.50;;
75073;SDS011;63652;51.526;5.080;2023-05-07T08:32:17;18.17;;;10.95;;
75073;SDS011;63652;51.526;5.080;2023-05-07T08:34:42;16.08;;;10.70;;
75073;SDS011;63652;51.526;5.080;2023-05-07T08:37:07;15.57;;;9.70;;
75073;SDS011;63652;51.526;5.080;2023-05-07T08:39:33;17.17;;;10.32;;
75073;SDS011;63652;51.526;5.080;2023-05-07T08:41:59;16.63;;;10.32;;
75073;SDS011;63652;51.526;5.080;2023-05-07T08:44:27;17.17;;;11.52;;
75073;SDS011;63652;51.526;5.080;2023-05-07T08:46:53;14.77;;;9.70;;
75073;SDS011;63652;51.526;5.080;2023-05-07T08:49:21;14.70;;;9.52;;
75073;SDS011;63652;51.526;5.080;2023-05-07T08:51:46;13.35;;;10.48;;
75073;SDS011;63652;51.526;5.080;2023-05-07T08:54:12;13.90;;;10.20;;
75073;SDS011;63652;51.526;5.080;2023-05-07T08:56:41;16.33;;;10.18;;
75073;SDS011;63652;51.526;5.080;2023-05-07T08:59:06;14.50;;;9.70;;
75073;SDS011;63652;51.526;5.080;2023-05-07T09:01:32;16.45;;;10.00;;
75073;SDS011;63652;51.526;5.080;2023-05-07T09:03:57;14.38;;;10.35;;
75073;SDS011;63652;51.526;5.080;2023-05-07T09:06:22;15.60;;;9.98;;
75073;SDS011;63652;51.526;5.080;2023-05-07T09:08:49;13.18;;;9.30;;
75073;SDS011;63652;51.526;5.080;2023-05-07T09:11:16;18.83;;;9.50;;
75073;SDS011;63652;51.526;5.080;2023-05-07T09:13:42;13.60;;;10.13;;
75073;SDS011;63652;51.526;5.080;2023-05-07T09:16:11;13.60;;;9.50;;
75073;SDS011;63652;51.526;5.080;2023-05-07T09:18:40;17.83;;;9.45;;
75073;SDS011;63652;51.526;5.080;2023-05-07T09:21:09;15.57;;;10.20;;
75073;SDS011;63652;51.526;5.080;2023-05-07T09:23:35;15.23;;;10.30;;
75073;SDS011;63652;51.526;5.080;2023-05-07T09:26:00;16.02;;;9.70;;
75073;SDS011;63652;51.526;5.080;2023-05-07T09:28:26;16.05;;;10.40;;
75073;SDS011;63652;51.526;5.080;2023-05-07T09:30:52;15.25;;;10.00;;
75073;SDS011;63652;51.526;5.080;2023-05-07T09:33:17;13.63;;;9.73;;
75073;SDS011;63652;51.526;5.080;2023-05-07T09:35:42;14.77;;;11.00;;
75073;SDS011;63652;51.526;5.080;2023-05-07T09:38:08;15.07;;;10.50;;
75073;SDS011;63652;51.526;5.080;2023-05-07T09:40:33;17.33;;;11.40;;
75073;SDS011;63652;51.526;5.080;2023-05-07T09:43:08;16.92;;;10.63;;
75073;SDS011;63652;51.526;5.080;2023-05-07T09:45:37;16.20;;;9.27;;
75073;SDS011;63652;51.526;5.080;2023-05-07T09:48:04;14.90;;;10.35;;
75073;SDS011;63652;51.526;5.080;2023-05-07T09:50:38;14.25;;;10.10;;
75073;SDS011;63652;51.526;5.080;2023-05-07T09:53:09;15.18;;;10.15;;
75073;SDS011;63652;51.526;5.080;2023-05-07T09:55:35;17.38;;;10.88;;
75073;SDS011;63652;51.526;5.080;2023-05-07T09:58:00;16.58;;;10.23;;
75073;SDS011;63652;51.526;5.080;2023-05-07T10:00:27;14.20;;;9.82;;
75073;SDS011;63652;51.526;5.080;2023-05-07T10:02:53;18.27;;;10.93;;
75073;SDS011;63652;51.526;5.080;2023-05-07T10:05:22;16.23;;;11.25;;
75073;SDS011;63652;51.526;5.080;2023-05-07T10:07:47;16.67;;;10.80;;
75073;SDS011;63652;51.526;5.080;2023-05-07T10:10:14;14.45;;;9.77;;
75073;SDS011;63652;51.526;5.080;2023-05-07T10:12:40;15.73;;;10.27;;
75073;SDS011;63652;51.526;5.080;2023-05-07T10:15:10;13.15;;;9.75;;
75073;SDS011;63652;51.526;5.080;2023-05-07T10:17:36;12.00;;;8.40;;
75073;SDS011;63652;51.526;5.080;2023-05-07T10:20:02;13.25;;;8.32;;
75073;SDS011;63652;51.526;5.080;2023-05-07T10:22:30;14.13;;;9.00;;
75073;SDS011;63652;51.526;5.080;2023-05-07T10:25:03;12.82;;;7.70;;
75073;SDS011;63652;51.526;5.080;2023-05-07T10:27:32;11.70;;;7.43;;
75073;SDS011;63652;51.526;5.080;2023-05-07T10:34:54;8.63;;;6.05;;
75073;SDS011;63652;51.526;5.080;2023-05-07T10:37:23;9.50;;;6.03;;
75073;SDS011;63652;51.526;5.080;2023-05-07T10:39:49;9.02;;;5.45;;
75073;SDS011;63652;51.526;5.080;2023-05-07T10:42:14;10.02;;;6.60;;
75073;SDS011;63652;51.526;5.080;2023-05-07T10:44:40;10.98;;;7.57;;
75073;SDS011;63652;51.526;5.080;2023-05-07T10:47:09;10.10;;;6.70;;
75073;SDS011;63652;51.526;5.080;2023-05-07T10:50:21;11.30;;;7.15;;
75073;SDS011;63652;51.526;5.080;2023-05-07T10:52:27;9.02;;;6.20;;
75073;SDS011;63652;51.526;5.080;2023-05-07T10:57:46;9.18;;;6.25;;
75073;SDS011;63652;51.526;5.080;2023-05-07T11:05:23;9.65;;;6.32;;
75073;SDS011;63652;51.526;5.080;2023-05-07T11:07:55;9.55;;;7.25;;
75073;SDS011;63652;51.526;5.080;2023-05-07T11:13:12;10.35;;;6.43;;
75073;SDS011;63652;51.526;5.080;2023-05-07T11:15:40;8.82;;;6.03;;
75073;SDS011;63652;51.526;5.080;2023-05-07T11:18:15;11.63;;;6.82;;
75073;SDS011;63652;51.526;5.080;2023-05-07T11:26:03;11.05;;;6.70;;
75073;SDS011;63652;51.526;5.080;2023-05-07T11:28:30;9.10;;;6.25;;
75073;SDS011;63652;51.526;5.080;2023-05-07T11:30:56;8.10;;;5.47;;
75073;SDS011;63652;51.526;5.080;2023-05-07T11:33:22;9.10;;;5.82;;
75073;SDS011;63652;51.526;5.080;2023-05-07T11:35:50;8.05;;;5.78;;
75073;SDS011;63652;51.526;5.080;2023-05-07T11:38:16;7.32;;;5.07;;
75073;SDS011;63652;51.526;5.080;2023-05-07T11:40:57;9.52;;;5.95;;
75073;SDS011;63652;51.526;5.080;2023-05-07T11:43:25;8.32;;;5.43;;
75073;SDS011;63652;51.526;5.080;2023-05-07T11:45:51;8.30;;;5.90;;
75073;SDS011;63652;51.526;5.080;2023-05-07T11:48:16;9.32;;;6.07;;
75073;SDS011;63652;51.526;5.080;2023-05-07T11:50:51;9.60;;;6.43;;
75073;SDS011;63652;51.526;5.080;2023-05-07T11:53:18;9.05;;;6.72;;
75073;SDS011;63652;51.526;5.080;2023-05-07T11:55:45;8.85;;;5.75;;
75073;SDS011;63652;51.526;5.080;2023-05-07T11:58:11;8.05;;;5.20;;
75073;SDS011;63652;51.526;5.080;2023-05-07T12:00:37;10.07;;;5.85;;
75073;SDS011;63652;51.526;5.080;2023-05-07T12:03:06;9.48;;;5.80;;
75073;SDS011;63652;51.526;5.080;2023-05-07T12:05:31;7.05;;;4.82;;
75073;SDS011;63652;51.526;5.080;2023-05-07T12:07:57;7.68;;;4.68;;
75073;SDS011;63652;51.526;5.080;2023-05-07T12:10:22;6.07;;;4.10;;
75073;SDS011;63652;51.526;5.080;2023-05-07T12:12:49;6.82;;;4.90;;
75073;SDS011;63652;51.526;5.080;2023-05-07T12:15:15;6.80;;;5.05;;
75073;SDS011;63652;51.526;5.080;2023-05-07T12:17:41;7.10;;;4.82;;
75073;SDS011;63652;51.526;5.080;2023-05-07T12:20:07;6.85;;;4.50;;
75073;SDS011;63652;51.526;5.080;2023-05-07T12:22:33;7.13;;;3.92;;
75073;SDS011;63652;51.526;5.080;2023-05-07T12:24:58;6.57;;;3.97;;
75073;SDS011;63652;51.526;5.080;2023-05-07T12:27:25;7.05;;;4.80;;
75073;SDS011;63652;51.526;5.080;2023-05-07T12:29:51;8.27;;;5.22;;
75073;SDS011;63652;51.526;5.080;2023-05-07T12:32:17;8.45;;;5.70;;
75073;SDS011;63652;51.526;5.080;2023-05-07T12:34:43;10.18;;;6.15;;
75073;SDS011;63652;51.526;5.080;2023-05-07T12:37:09;8.60;;;5.50;;
75073;SDS011;63652;51.526;5.080;2023-05-07T12:39:35;10.10;;;6.10;;
75073;SDS011;63652;51.526;5.080;2023-05-07T12:42:00;11.15;;;5.72;;
75073;SDS011;63652;51.526;5.080;2023-05-07T12:44:30;7.80;;;5.07;;
75073;SDS011;63652;51.526;5.080;2023-05-07T12:46:56;8.32;;;5.07;;
75073;SDS011;63652;51.526;5.080;2023-05-07T12:49:22;10.65;;;5.35;;
75073;SDS011;63652;51.526;5.080;2023-05-07T12:51:48;10.45;;;5.65;;
75073;SDS011;63652;51.526;5.080;2023-05-07T12:54:33;6.57;;;4.68;;
75073;SDS011;63652;51.526;5.080;2023-05-07T12:57:03;7.60;;;4.68;;
75073;SDS011;63652;51.526;5.080;2023-05-07T12:59:40;7.72;;;5.38;;
75073;SDS011;63652;51.526;5.080;2023-05-07T13:02:06;8.05;;;5.55;;
75073;SDS011;63652;51.526;5.080;2023-05-07T13:04:32;7.63;;;5.07;;
75073;SDS011;63652;51.526;5.080;2023-05-07T13:06:57;7.10;;;5.15;;
75073;SDS011;63652;51.526;5.080;2023-05-07T13:09:23;11.65;;;5.55;;
75073;SDS011;63652;51.526;5.080;2023-05-07T13:11:49;11.65;;;7.03;;
75073;SDS011;63652;51.526;5.080;2023-05-07T13:14:14;9.55;;;6.53;;
75073;SDS011;63652;51.526;5.080;2023-05-07T13:16:40;11.93;;;6.93;;
75073;SDS011;63652;51.526;5.080;2023-05-07T13:19:05;10.50;;;7.03;;
75073;SDS011;63652;51.526;5.080;2023-05-07T13:21:31;9.20;;;6.18;;
75073;SDS011;63652;51.526;5.080;2023-05-07T13:23:59;8.02;;;5.88;;
75073;SDS011;63652;51.526;5.080;2023-05-07T13:26:24;14.02;;;8.02;;
75073;SDS011;63652;51.526;5.080;2023-05-07T13:28:50;10.75;;;7.88;;
75073;SDS011;63652;51.526;5.080;2023-05-07T13:31:16;12.40;;;8.18;;
75073;SDS011;63652;51.526;5.080;2023-05-07T13:33:42;11.23;;;7.25;;
75073;SDS011;63652;51.526;5.080;2023-05-07T13:36:07;13.73;;;8.60;;
75073;SDS011;63652;51.526;5.080;2023-05-07T13:38:33;12.10;;;8.15;;
75073;SDS011;63652;51.526;5.080;2023-05-07T13:40:58;9.50;;;6.88;;
75073;SDS011;63652;51.526;5.080;2023-05-07T13:43:24;13.13;;;8.15;;
75073;SDS011;63652;51.526;5.080;2023-05-07T13:45:49;10.82;;;7.22;;
75073;SDS011;63652;51.526;5.080;2023-05-07T13:48:15;10.98;;;6.97;;
75073;SDS011;63652;51.526;5.080;2023-05-07T13:50:40;11.60;;;7.18;;
75073;SDS011;63652;51.526;5.080;2023-05-07T13:53:07;11.02;;;6.65;;
75073;SDS011;63652;51.526;5.080;2023-05-07T13:55:32;11.77;;;6.25;;
75073;SDS011;63652;51.526;5.080;2023-05-07T13:57:59;10.98;;;7.30;;
75073;SDS011;63652;51.526;5.080;2023-05-07T14:00:26;9.57;;;6.68;;
75073;SDS011;63652;51.526;5.080;2023-05-07T14:02:52;13.60;;;6.78;;
75073;SDS011;63652;51.526;5.080;2023-05-07T14:05:17;12.80;;;7.47;;
75073;SDS011;63652;51.526;5.080;2023-05-07T14:07:43;13.13;;;8.48;;
75073;SDS011;63652;51.526;5.080;2023-05-07T14:10:08;10.18;;;7.60;;
75073;SDS011;63652;51.526;5.080;2023-05-07T14:12:36;12.77;;;7.72;;
75073;SDS011;63652;51.526;5.080;2023-05-07T14:15:01;13.93;;;7.68;;
75073;SDS011;63652;51.526;5.080;2023-05-07T14:17:27;13.57;;;8.02;;
75073;SDS011;63652;51.526;5.080;2023-05-07T14:19:53;10.93;;;7.07;;
75073;SDS011;63652;51.526;5.080;2023-05-07T14:22:19;10.93;;;7.25;;
75073;SDS011;63652;51.526;5.080;2023-05-07T14:24:45;10.73;;;6.93;;
75073;SDS011;63652;51.526;5.080;2023-05-07T14:27:11;10.32;;;7.07;;
75073;SDS011;63652;51.526;5.080;2023-05-07T14:29:36;11.35;;;7.47;;
75073;SDS011;63652;51.526;5.080;2023-05-07T14:32:02;11.32;;;7.32;;
75073;SDS011;63652;51.526;5.080;2023-05-07T14:34:28;11.35;;;7.40;;
75073;SDS011;63652;51.526;5.080;2023-05-07T14:36:53;11.48;;;7.20;;
75073;SDS011;63652;51.526;5.080;2023-05-07T14:39:19;11.38;;;7.25;;
75073;SDS011;63652;51.526;5.080;2023-05-07T14:41:44;10.43;;;6.32;;
75073;SDS011;63652;51.526;5.080;2023-05-07T14:44:09;11.57;;;8.05;;
75073;SDS011;63652;51.526;5.080;2023-05-07T14:46:37;9.02;;;4.30;;
75073;SDS011;63652;51.526;5.080;2023-05-07T14:49:02;6.93;;;4.22;;
75073;SDS011;63652;51.526;5.080;2023-05-07T14:51:28;7.78;;;4.43;;
75073;SDS011;63652;51.526;5.080;2023-05-07T14:53:53;10.63;;;6.55;;